createdAt,value
2019-04-04T00:00:34.787Z,92.52
2019-04-04T00:01:34.754Z,92.57
2019-04-04T00:02:34.745Z,92.36
2019-04-04T00:03:34.767Z,92.97
2019-04-04T00:04:34.729Z,92.77
2019-04-04T00:05:34.715Z,92.87
2019-04-04T00:06:34.730Z,92.77
2019-04-04T00:07:34.688Z,92.46
2019-04-04T00:08:34.679Z,92.46
2019-04-04T00:09:34.728Z,92.46
2019-04-04T00:10:35.220Z,92.87
2019-04-04T00:11:35.028Z,92.87
2019-04-04T00:12:34.643Z,92.46
2019-04-04T00:13:34.621Z,92.36
2019-04-04T00:14:34.611Z,92.71
2019-04-04T00:15:34.642Z,92.61
2019-04-04T00:16:34.589Z,92.46
2019-04-04T00:17:34.577Z,92.46
2019-04-04T00:18:34.578Z,92.87
2019-04-04T00:19:34.555Z,92.91
2019-04-04T00:20:34.543Z,92.61
2019-04-04T00:21:34.678Z,92.77
2019-04-04T00:22:35.478Z,92.57
2019-04-04T00:23:37.688Z,92.67
2019-04-04T00:24:34.516Z,92.87
2019-04-04T00:25:34.490Z,92.91
2019-04-04T00:26:34.478Z,92.71
2019-04-04T00:27:34.514Z,92.57
2019-04-04T00:28:34.456Z,92.57
2019-04-04T00:29:34.443Z,92.25
2019-04-04T00:30:34.456Z,91.84
2019-04-04T00:31:34.422Z,92.46
2019-04-04T00:32:34.413Z,91.63
2019-04-04T00:33:34.442Z,91.57
2019-04-04T00:34:34.389Z,90.84
2019-04-04T00:35:34.377Z,90.84
2019-04-04T00:36:34.825Z,90.12
2019-04-04T00:37:36.110Z,89.98
2019-04-04T00:38:37.703Z,90.29
2019-04-04T00:39:34.374Z,90.74
2019-04-04T00:40:34.321Z,90.44
2019-04-04T00:41:34.311Z,90.12
2019-04-04T00:42:34.322Z,90.53
2019-04-04T00:43:34.288Z,90.23
2019-04-04T00:44:34.279Z,90.95
2019-04-04T00:45:34.303Z,90.33
2019-04-04T00:46:34.255Z,90.53
2019-04-04T00:47:34.247Z,90.84
2019-04-04T00:48:34.800Z,91.16
2019-04-04T00:49:35.542Z,90.84
2019-04-04T00:50:34.840Z,90.95
2019-04-04T00:51:34.245Z,90.64
2019-04-04T00:52:34.191Z,90.53
2019-04-04T00:53:34.178Z,90.44
2019-04-04T00:54:34.186Z,90.16
2019-04-04T00:55:34.159Z,90.02
2019-04-04T00:56:34.147Z,90.23
2019-04-04T00:57:34.190Z,89.92
2019-04-04T00:58:34.122Z,90.44
2019-04-04T00:59:34.111Z,90.33
2019-04-04T01:00:34.111Z,89.71
2019-04-04T01:01:34.089Z,89.09
2019-04-04T01:02:34.079Z,89.09
2019-04-04T01:03:34.107Z,88.67
2019-04-04T01:04:34.056Z,88.57
2019-04-04T01:05:34.045Z,88.46
2019-04-04T01:06:34.396Z,88.67
2019-04-04T01:07:35.815Z,87.64
2019-04-04T01:08:34.013Z,87.74
2019-04-04T01:09:34.050Z,87.33
2019-04-04T01:10:33.990Z,87.85
2019-04-04T01:11:33.981Z,87.12
2019-04-04T01:12:33.992Z,87.64
2019-04-04T01:13:33.957Z,87.74
2019-04-04T01:14:33.949Z,86.81
2019-04-04T01:15:33.973Z,87.08
2019-04-04T01:16:34.144Z,87.33
2019-04-04T01:17:35.022Z,87.02
2019-04-04T01:18:34.984Z,87.02
2019-04-04T01:19:33.895Z,87.33
2019-04-04T01:20:33.880Z,87.33
2019-04-04T01:21:33.916Z,87.12
2019-04-04T01:22:33.858Z,87.02
2019-04-04T01:23:33.853Z,87.23
2019-04-04T01:24:33.853Z,87.23
2019-04-04T01:25:33.827Z,87.33
2019-04-04T01:26:35.158Z,87.12
2019-04-04T01:27:34.995Z,86.81
2019-04-04T01:28:33.792Z,87.54
2019-04-04T01:29:33.780Z,87.64
2019-04-04T01:30:33.789Z,87.95
2019-04-04T01:31:33.765Z,87.64
2019-04-04T01:32:33.749Z,88.16
2019-04-04T01:33:33.772Z,87.54
2019-04-04T01:34:33.726Z,88.09
2019-04-04T01:35:33.716Z,87.88
2019-04-04T01:36:33.719Z,87.78
2019-04-04T01:37:33.696Z,87.78
2019-04-04T01:38:33.685Z,87.78
2019-04-04T01:39:33.701Z,87.68
2019-04-04T01:40:33.905Z,88.09
2019-04-04T01:41:35.959Z,88.82
2019-04-04T01:42:33.653Z,88.82
2019-04-04T01:43:33.630Z,88.82
2019-04-04T01:44:33.615Z,88.71
2019-04-04T01:45:33.656Z,88.61
2019-04-04T01:46:33.595Z,88.61
2019-04-04T01:47:33.582Z,88.30
2019-04-04T01:48:33.593Z,88.71
2019-04-04T01:49:33.563Z,88.92
2019-04-04T01:50:33.550Z,88.82
2019-04-04T01:51:33.609Z,88.03
2019-04-04T01:52:33.525Z,88.71
2019-04-04T01:53:33.516Z,88.82
2019-04-04T01:54:33.528Z,88.76
2019-04-04T01:55:35.041Z,88.20
2019-04-04T01:56:35.045Z,88.20
2019-04-04T01:57:33.501Z,88.55
2019-04-04T01:58:33.461Z,88.40
2019-04-04T01:59:33.452Z,88.09
2019-04-04T02:00:33.454Z,88.51
2019-04-04T02:01:33.426Z,88.51
2019-04-04T02:02:33.415Z,88.40
2019-04-04T02:03:33.712Z,88.51
2019-04-04T02:04:33.472Z,88.82
2019-04-04T02:05:33.381Z,88.92
2019-04-04T02:06:33.403Z,88.40
2019-04-04T02:07:33.360Z,88.51
2019-04-04T02:08:33.352Z,88.51
2019-04-04T02:09:34.564Z,88.20
2019-04-04T02:10:34.840Z,88.40
2019-04-04T02:11:33.317Z,88.61
2019-04-04T02:12:33.322Z,88.82
2019-04-04T02:13:33.296Z,89.03
2019-04-04T02:14:33.287Z,88.65
2019-04-04T02:15:33.316Z,88.34
2019-04-04T02:16:33.260Z,88.09
2019-04-04T02:17:33.252Z,88.51
2019-04-04T02:18:33.255Z,88.82
2019-04-04T02:19:33.227Z,88.71
2019-04-04T02:20:33.217Z,88.71
2019-04-04T02:21:33.243Z,88.71
2019-04-04T02:22:33.196Z,88.92
2019-04-04T02:23:33.186Z,88.92
2019-04-04T02:24:33.196Z,88.61
2019-04-04T02:25:34.112Z,88.51
2019-04-04T02:26:35.750Z,88.71
2019-04-04T02:27:33.184Z,88.82
2019-04-04T02:28:33.130Z,88.65
2019-04-04T02:29:33.122Z,88.82
2019-04-04T02:30:33.118Z,88.92
2019-04-04T02:31:33.097Z,89.17
2019-04-04T02:32:33.086Z,88.96
2019-04-04T02:33:33.302Z,89.17
2019-04-04T02:34:33.075Z,88.86
2019-04-04T02:35:33.054Z,88.86
2019-04-04T02:36:33.054Z,88.96
2019-04-04T02:37:33.032Z,89.69
2019-04-04T02:38:33.019Z,89.38
2019-04-04T02:39:35.240Z,89.58
2019-04-04T02:40:33.010Z,90.41
2019-04-04T02:41:32.988Z,90.41
2019-04-04T02:42:32.986Z,90.00
2019-04-04T02:43:32.965Z,90.00
2019-04-04T02:44:33.235Z,90.31
2019-04-04T02:45:32.984Z,90.20
2019-04-04T02:46:32.931Z,90.31
2019-04-04T02:47:32.935Z,90.41
2019-04-04T02:48:32.926Z,90.41
2019-04-04T02:49:32.899Z,90.41
2019-04-04T02:50:35.686Z,90.41
2019-04-04T02:51:32.951Z,89.69
2019-04-04T02:52:32.870Z,89.48
2019-04-04T02:53:32.857Z,89.38
2019-04-04T02:54:32.862Z,89.48
2019-04-04T02:55:32.832Z,89.83
2019-04-04T02:56:36.013Z,89.58
2019-04-04T02:57:32.844Z,89.58
2019-04-04T02:58:32.806Z,89.48
2019-04-04T02:59:32.807Z,89.38
2019-04-04T03:00:32.776Z,89.17
2019-04-04T03:01:33.304Z,89.38
2019-04-04T03:02:36.175Z,89.38
2019-04-04T03:03:32.787Z,88.96
2019-04-04T03:04:32.735Z,89.38
2019-04-04T03:05:32.788Z,88.76
2019-04-04T03:06:32.710Z,89.17
2019-04-04T03:07:32.700Z,88.96
2019-04-04T03:08:36.735Z,88.65
2019-04-04T03:09:32.716Z,88.65
2019-04-04T03:10:32.666Z,88.45
2019-04-04T03:11:32.679Z,88.76
2019-04-04T03:12:32.642Z,88.96
2019-04-04T03:13:32.631Z,88.96
2019-04-04T03:14:36.328Z,88.76
2019-04-04T03:15:32.655Z,88.76
2019-04-04T03:16:32.599Z,89.07
2019-04-04T03:17:32.812Z,88.96
2019-04-04T03:18:34.827Z,89.48
2019-04-04T03:19:32.574Z,89.69
2019-04-04T03:20:32.556Z,89.69
2019-04-04T03:21:32.597Z,89.38
2019-04-04T03:22:32.532Z,89.58
2019-04-04T03:23:33.799Z,90.10
2019-04-04T03:24:32.510Z,89.58
2019-04-04T03:25:32.535Z,89.48
2019-04-04T03:26:32.488Z,89.48
2019-04-04T03:27:32.512Z,89.48
2019-04-04T03:28:32.549Z,89.28
2019-04-04T03:29:37.379Z,89.58
2019-04-04T03:30:33.443Z,89.48
2019-04-04T03:31:37.576Z,88.96
2019-04-04T03:32:33.460Z,88.96
2019-04-04T03:33:32.845Z,88.96
2019-04-04T03:34:32.398Z,89.69
2019-04-04T03:35:32.405Z,89.69
2019-04-04T03:36:33.875Z,89.38
2019-04-04T03:37:32.367Z,88.76
2019-04-04T03:38:32.387Z,89.69
2019-04-04T03:39:32.344Z,89.38
2019-04-04T03:40:32.338Z,89.48
2019-04-04T03:41:36.022Z,89.58
2019-04-04T03:42:32.311Z,89.38
2019-04-04T03:43:32.304Z,89.69
2019-04-04T03:44:32.326Z,89.28
2019-04-04T03:45:32.294Z,88.86
2019-04-04T03:46:37.705Z,88.96
2019-04-04T03:47:33.267Z,89.17
2019-04-04T03:48:32.245Z,88.55
2019-04-04T03:49:32.234Z,88.65
2019-04-04T03:50:32.251Z,88.65
2019-04-04T03:51:32.213Z,88.65
2019-04-04T03:52:32.202Z,88.51
2019-04-04T03:53:32.202Z,88.65
2019-04-04T03:54:32.222Z,88.65
2019-04-04T03:55:32.165Z,88.82
2019-04-04T03:56:38.706Z,88.71
2019-04-04T03:57:33.140Z,89.03
2019-04-04T03:58:32.137Z,89.17
2019-04-04T03:59:33.096Z,89.13
2019-04-04T04:00:32.119Z,88.82
2019-04-04T04:01:32.101Z,88.34
2019-04-04T04:02:32.137Z,88.34
2019-04-04T04:03:32.077Z,89.07
2019-04-04T04:04:32.069Z,89.38
2019-04-04T04:05:35.544Z,88.76
2019-04-04T04:06:32.043Z,89.23
2019-04-04T04:07:32.031Z,89.17
2019-04-04T04:08:32.059Z,89.28
2019-04-04T04:09:32.010Z,89.17
2019-04-04T04:10:33.273Z,88.65
2019-04-04T04:11:32.002Z,88.96
2019-04-04T04:12:32.034Z,89.17
2019-04-04T04:13:31.977Z,89.28
2019-04-04T04:14:32.009Z,88.76
2019-04-04T04:15:31.947Z,89.28
2019-04-04T04:16:34.775Z,89.38
2019-04-04T04:17:31.937Z,89.17
2019-04-04T04:18:31.916Z,89.38
2019-04-04T04:19:31.911Z,89.58
2019-04-04T04:20:36.103Z,89.69
2019-04-04T04:21:33.038Z,89.58
2019-04-04T04:22:31.878Z,90.10
2019-04-04T04:23:31.873Z,89.38
2019-04-04T04:24:31.856Z,89.58
2019-04-04T04:25:35.302Z,89.48
2019-04-04T04:26:31.893Z,89.38
2019-04-04T04:27:31.841Z,90.00
2019-04-04T04:28:31.820Z,90.52
2019-04-04T04:29:31.816Z,90.25
2019-04-04T04:30:31.783Z,90.45
2019-04-04T04:31:31.775Z,90.41
2019-04-04T04:32:31.810Z,90.56
2019-04-04T04:33:31.870Z,89.52
2019-04-04T04:34:33.943Z,89.79
2019-04-04T04:35:31.734Z,89.79
2019-04-04T04:36:31.722Z,89.69
2019-04-04T04:37:31.728Z,89.73
2019-04-04T04:38:31.742Z,89.42
2019-04-04T04:39:36.109Z,90.04
2019-04-04T04:40:32.699Z,90.41
2019-04-04T04:41:31.669Z,90.04
2019-04-04T04:42:31.645Z,90.04
2019-04-04T04:43:33.520Z,90.25
2019-04-04T04:44:31.669Z,90.14
2019-04-04T04:45:31.616Z,90.35
2019-04-04T04:46:31.620Z,90.35
2019-04-04T04:47:31.620Z,90.56
2019-04-04T04:48:32.032Z,90.66
2019-04-04T04:49:35.325Z,90.66
2019-04-04T04:50:31.599Z,90.56
2019-04-04T04:51:31.565Z,90.87
2019-04-04T04:52:31.571Z,91.28
2019-04-04T04:53:31.529Z,91.18
2019-04-04T04:54:31.561Z,91.08
2019-04-04T04:55:31.522Z,91.60
2019-04-04T04:56:31.961Z,91.39
2019-04-04T04:57:31.505Z,91.28
2019-04-04T04:58:31.479Z,91.70
2019-04-04T04:59:31.466Z,91.70
2019-04-04T05:00:31.456Z,90.97
2019-04-04T05:01:31.491Z,91.28
2019-04-04T05:02:31.487Z,91.60
2019-04-04T05:03:31.436Z,91.08
2019-04-04T05:04:31.409Z,90.87
2019-04-04T05:05:32.065Z,90.87
2019-04-04T05:06:31.412Z,91.18
2019-04-04T05:07:31.378Z,90.97
2019-04-04T05:08:31.422Z,90.77
2019-04-04T05:09:31.367Z,90.87
2019-04-04T05:10:31.354Z,90.77
2019-04-04T05:11:31.335Z,90.45
2019-04-04T05:12:31.328Z,90.87
2019-04-04T05:13:31.310Z,91.18
2019-04-04T05:14:31.446Z,91.03
2019-04-04T05:15:32.291Z,91.08
2019-04-04T05:16:31.290Z,90.93
2019-04-04T05:17:31.272Z,90.93
2019-04-04T05:18:31.258Z,90.83
2019-04-04T05:19:31.248Z,91.08
2019-04-04T05:20:31.274Z,90.83
2019-04-04T05:21:33.726Z,90.52
2019-04-04T05:22:31.221Z,90.10
2019-04-04T05:23:31.241Z,90.20
2019-04-04T05:24:31.186Z,90.62
2019-04-04T05:25:31.878Z,90.77
2019-04-04T05:26:32.252Z,90.72
2019-04-04T05:27:31.199Z,90.72
2019-04-04T05:28:31.206Z,90.41
2019-04-04T05:29:31.140Z,90.31
2019-04-04T05:30:31.141Z,90.62
2019-04-04T05:31:31.105Z,90.52
2019-04-04T05:32:31.177Z,90.10
2019-04-04T05:33:31.633Z,90.52
2019-04-04T05:34:31.167Z,90.62
2019-04-04T05:35:31.254Z,90.72
2019-04-04T05:36:31.049Z,90.31
2019-04-04T05:37:31.069Z,90.31
2019-04-04T05:38:31.059Z,90.20
2019-04-04T05:39:31.031Z,90.20
2019-04-04T05:40:31.010Z,90.20
2019-04-04T05:41:31.066Z,90.10
2019-04-04T05:42:33.110Z,90.06
2019-04-04T05:43:30.986Z,90.06
2019-04-04T05:44:31.020Z,90.06
2019-04-04T05:45:30.956Z,90.31
2019-04-04T05:46:30.966Z,89.96
2019-04-04T05:47:30.953Z,90.06
2019-04-04T05:48:30.938Z,90.52
2019-04-04T05:49:30.920Z,90.06
2019-04-04T05:50:30.932Z,90.16
2019-04-04T05:51:30.890Z,90.26
2019-04-04T05:52:32.680Z,90.16
2019-04-04T05:53:30.862Z,90.16
2019-04-04T05:54:30.874Z,90.26
2019-04-04T05:55:30.843Z,90.31
2019-04-04T05:56:30.888Z,90.47
2019-04-04T05:57:30.839Z,90.00
2019-04-04T05:58:30.802Z,89.86
2019-04-04T05:59:30.831Z,89.96
2019-04-04T06:00:30.817Z,90.06
2019-04-04T06:01:30.801Z,90.16
2019-04-04T06:02:30.808Z,90.47
2019-04-04T06:03:30.752Z,90.26
2019-04-04T06:04:30.785Z,90.26
2019-04-04T06:05:31.890Z,90.06
2019-04-04T06:06:31.160Z,90.16
2019-04-04T06:07:30.737Z,89.50
2019-04-04T06:08:30.765Z,89.54
2019-04-04T06:09:30.806Z,89.13
2019-04-04T06:10:30.671Z,88.57
2019-04-04T06:11:30.658Z,88.46
2019-04-04T06:12:30.663Z,88.61
2019-04-04T06:13:30.640Z,88.78
2019-04-04T06:14:30.763Z,88.36
2019-04-04T06:15:32.201Z,87.54
2019-04-04T06:16:30.630Z,87.74
2019-04-04T06:17:30.623Z,87.91
2019-04-04T06:18:30.600Z,88.46
2019-04-04T06:19:30.580Z,88.46
2019-04-04T06:20:30.645Z,88.57
2019-04-04T06:21:30.549Z,87.85
2019-04-04T06:22:30.537Z,87.91
2019-04-04T06:23:30.524Z,87.81
2019-04-04T06:24:30.513Z,87.91
2019-04-04T06:25:34.413Z,87.18
2019-04-04T06:26:31.547Z,87.29
2019-04-04T06:27:30.545Z,87.29
2019-04-04T06:28:30.483Z,87.04
2019-04-04T06:29:30.462Z,87.04
2019-04-04T06:30:42.568Z,87.15
2019-04-04T06:31:31.451Z,87.56
2019-04-04T06:32:31.027Z,87.56
2019-04-04T06:33:30.426Z,87.15
2019-04-04T06:34:30.447Z,87.25
2019-04-04T06:35:30.391Z,87.04
2019-04-04T06:36:30.397Z,87.15
2019-04-04T06:37:30.437Z,87.15
2019-04-04T06:38:30.396Z,87.15
2019-04-04T06:39:30.359Z,87.00
2019-04-04T06:40:30.924Z,87.52
2019-04-04T06:41:30.697Z,86.59
2019-04-04T06:42:30.325Z,87.00
2019-04-04T06:43:30.310Z,87.00
2019-04-04T06:44:30.371Z,86.69
2019-04-04T06:45:30.289Z,86.03
2019-04-04T06:46:30.277Z,86.34
2019-04-04T06:47:32.350Z,86.03
2019-04-04T06:48:33.536Z,85.83
2019-04-04T06:49:30.294Z,85.47
2019-04-04T06:50:30.258Z,85.27
2019-04-04T06:51:30.224Z,85.58
2019-04-04T06:52:30.224Z,85.68
2019-04-04T06:53:30.199Z,85.06
2019-04-04T06:54:30.188Z,84.72
2019-04-04T06:55:30.192Z,84.51
2019-04-04T06:56:32.044Z,84.72
2019-04-04T06:57:30.164Z,84.41
2019-04-04T06:58:30.148Z,84.61
2019-04-04T06:59:30.150Z,83.37
2019-04-04T07:00:30.128Z,83.58
2019-04-04T07:01:30.115Z,83.58
2019-04-04T07:02:30.166Z,83.89
2019-04-04T07:03:30.101Z,83.48
2019-04-04T07:04:31.891Z,83.37
2019-04-04T07:05:30.074Z,82.75
2019-04-04T07:06:30.055Z,82.75
2019-04-04T07:07:30.050Z,83.64
2019-04-04T07:08:30.077Z,83.48
2019-04-04T07:09:30.029Z,83.78
2019-04-04T07:10:30.008Z,84.41
2019-04-04T07:11:30.002Z,84.92
2019-04-04T07:12:29.986Z,84.67
2019-04-04T07:13:41.658Z,84.99
2019-04-04T07:14:45.181Z,85.30
2019-04-04T07:15:30.954Z,85.33
2019-04-04T07:16:29.941Z,85.33
2019-04-04T07:17:29.939Z,85.54
2019-04-04T07:18:29.934Z,85.95
2019-04-04T07:19:29.915Z,86.02
2019-04-04T07:20:29.983Z,86.02
2019-04-04T07:21:29.947Z,86.16
2019-04-04T07:22:29.914Z,86.02
2019-04-04T07:23:29.885Z,85.81
2019-04-04T07:24:31.159Z,85.81
2019-04-04T07:25:29.848Z,85.39
2019-04-04T07:26:29.888Z,85.15
2019-04-04T07:27:29.895Z,84.94
2019-04-04T07:28:30.935Z,85.01
2019-04-04T07:29:29.819Z,84.91
2019-04-04T07:30:29.789Z,85.22
2019-04-04T07:31:33.264Z,85.42
2019-04-04T07:32:29.824Z,84.49
2019-04-04T07:33:29.760Z,83.98
2019-04-04T07:34:29.746Z,84.45
2019-04-04T07:35:29.830Z,84.39
2019-04-04T07:36:29.720Z,85.22
2019-04-04T07:37:29.721Z,85.83
2019-04-04T07:38:29.745Z,85.52
2019-04-04T07:39:31.954Z,84.97
2019-04-04T07:40:29.701Z,84.80
2019-04-04T07:41:29.694Z,85.42
2019-04-04T07:42:29.666Z,84.91
2019-04-04T07:43:29.646Z,84.80
2019-04-04T07:44:29.679Z,84.19
2019-04-04T07:45:29.628Z,83.98
2019-04-04T07:46:29.675Z,84.39
2019-04-04T07:47:29.627Z,84.29
2019-04-04T07:48:29.604Z,84.05
2019-04-04T07:49:29.593Z,84.08
2019-04-04T07:50:29.638Z,84.29
2019-04-04T07:51:30.317Z,83.15
2019-04-04T07:52:32.794Z,82.84
2019-04-04T07:53:29.573Z,83.05
2019-04-04T07:54:31.928Z,83.47
2019-04-04T07:55:29.503Z,83.42
2019-04-04T07:56:29.611Z,82.84
2019-04-04T07:57:30.266Z,82.09
2019-04-04T07:58:29.484Z,82.91
2019-04-04T07:59:31.052Z,82.60
2019-04-04T08:00:29.458Z,82.70
2019-04-04T08:01:29.494Z,82.60
2019-04-04T08:02:29.497Z,82.60
2019-04-04T08:03:29.440Z,82.60
2019-04-04T08:04:29.417Z,81.67
2019-04-04T08:05:29.421Z,81.98
2019-04-04T08:06:29.390Z,82.60
2019-04-04T08:07:29.396Z,82.19
2019-04-04T08:08:29.405Z,81.67
2019-04-04T08:09:29.357Z,80.95
2019-04-04T08:10:29.359Z,81.43
2019-04-04T08:11:29.348Z,82.15
2019-04-04T08:12:29.331Z,79.99
2019-04-04T08:13:29.312Z,79.68
2019-04-04T08:14:29.361Z,79.37
2019-04-04T08:15:29.291Z,79.27
2019-04-04T08:16:29.298Z,79.58
2019-04-04T08:17:29.274Z,79.06
2019-04-04T08:18:29.271Z,79.79
2019-04-04T08:19:29.285Z,79.68
2019-04-04T08:20:29.271Z,79.37
2019-04-04T08:21:29.233Z,79.03
2019-04-04T08:22:29.245Z,79.33
2019-04-04T08:23:29.240Z,78.86
2019-04-04T08:24:29.189Z,79.54
2019-04-04T08:25:29.196Z,79.13
2019-04-04T08:26:29.237Z,78.72
2019-04-04T08:27:29.201Z,78.82
2019-04-04T08:28:29.145Z,79.03
2019-04-04T08:29:29.152Z,79.03
2019-04-04T08:30:29.136Z,77.07
2019-04-04T08:31:29.153Z,77.17
2019-04-04T08:32:29.224Z,77.34
2019-04-04T08:33:29.131Z,77.86
2019-04-04T08:34:29.094Z,76.73
2019-04-04T08:35:29.066Z,77.28
2019-04-04T08:36:29.053Z,77.96
2019-04-04T08:37:29.061Z,78.27
2019-04-04T08:38:29.087Z,77.28
2019-04-04T08:39:29.027Z,77.03
2019-04-04T08:40:29.014Z,77.79
2019-04-04T08:41:29.010Z,76.66
2019-04-04T08:42:28.994Z,78.30
2019-04-04T08:43:28.978Z,77.03
2019-04-04T08:44:29.029Z,77.17
2019-04-04T08:45:28.956Z,77.65
2019-04-04T08:46:28.956Z,78.06
2019-04-04T08:47:28.990Z,77.14
2019-04-04T08:48:28.921Z,77.14
2019-04-04T08:49:28.915Z,76.73
2019-04-04T08:50:28.932Z,76.21
2019-04-04T08:51:28.898Z,76.01
2019-04-04T08:52:28.879Z,76.21
2019-04-04T08:53:39.367Z,76.01
2019-04-04T08:54:29.912Z,75.90
2019-04-04T08:55:28.844Z,76.11
2019-04-04T08:56:28.884Z,76.52
2019-04-04T08:57:28.821Z,76.42
2019-04-04T08:58:28.804Z,76.52
2019-04-04T08:59:28.806Z,76.62
2019-04-04T09:00:28.780Z,77.24
2019-04-04T09:01:28.770Z,76.83
2019-04-04T09:02:28.801Z,76.21
2019-04-04T09:03:28.745Z,76.42
2019-04-04T09:04:28.743Z,76.31
2019-04-04T09:05:28.727Z,76.21
2019-04-04T09:06:28.715Z,75.84
2019-04-04T09:07:28.701Z,75.39
2019-04-04T09:08:28.743Z,75.59
2019-04-04T09:09:28.696Z,75.49
2019-04-04T09:10:28.682Z,74.46
2019-04-04T09:11:28.668Z,74.87
2019-04-04T09:12:28.658Z,74.84
2019-04-04T09:13:28.640Z,75.25
2019-04-04T09:14:28.652Z,75.15
2019-04-04T09:15:28.611Z,74.22
2019-04-04T09:16:28.600Z,73.98
2019-04-04T09:17:28.594Z,74.80
2019-04-04T09:18:28.597Z,74.19
2019-04-04T09:19:28.570Z,74.15
2019-04-04T09:20:28.609Z,73.23
2019-04-04T09:21:28.547Z,73.54
2019-04-04T09:22:28.787Z,73.36
2019-04-04T09:23:28.538Z,73.54
2019-04-04T09:24:28.516Z,73.23
2019-04-04T09:25:28.609Z,73.02
2019-04-04T09:26:28.596Z,73.54
2019-04-04T09:27:28.514Z,74.36
2019-04-04T09:28:28.481Z,74.77
2019-04-04T09:29:28.490Z,74.94
2019-04-04T09:30:28.511Z,73.81
2019-04-04T09:31:28.456Z,72.89
2019-04-04T09:32:28.474Z,72.58
2019-04-04T09:33:28.464Z,73.30
2019-04-04T09:34:28.426Z,74.26
2019-04-04T09:35:28.433Z,73.33
2019-04-04T09:36:28.410Z,74.46
2019-04-04T09:37:28.374Z,75.29
2019-04-04T09:38:29.284Z,74.77
2019-04-04T09:39:28.346Z,74.36
2019-04-04T09:40:28.382Z,74.57
2019-04-04T09:41:28.335Z,74.26
2019-04-04T09:42:28.320Z,73.13
2019-04-04T09:43:28.320Z,73.23
2019-04-04T09:44:28.339Z,73.44
2019-04-04T09:45:28.304Z,73.13
2019-04-04T09:46:28.272Z,73.95
2019-04-04T09:47:28.275Z,74.15
2019-04-04T09:48:28.253Z,73.85
2019-04-04T09:49:28.254Z,73.95
2019-04-04T09:50:28.304Z,74.77
2019-04-04T09:51:28.227Z,75.08
2019-04-04T09:52:28.326Z,73.95
2019-04-04T09:53:28.208Z,73.64
2019-04-04T09:54:28.205Z,73.44
2019-04-04T09:55:28.176Z,73.13
2019-04-04T09:56:28.617Z,73.30
2019-04-04T09:57:28.176Z,74.36
2019-04-04T09:58:28.146Z,74.46
2019-04-04T09:59:28.140Z,74.94
2019-04-04T10:00:28.128Z,74.12
2019-04-04T10:01:28.123Z,74.32
2019-04-04T10:02:28.142Z,74.53
2019-04-04T10:03:28.098Z,73.85
2019-04-04T10:04:28.081Z,73.74
2019-04-04T10:05:28.091Z,73.54
2019-04-04T10:06:28.056Z,73.71
2019-04-04T10:07:28.047Z,72.58
2019-04-04T10:08:28.082Z,72.31
2019-04-04T10:09:28.047Z,72.68
2019-04-04T10:10:28.012Z,71.14
2019-04-04T10:11:27.998Z,72.06
2019-04-04T10:12:29.523Z,71.25
2019-04-04T10:13:27.989Z,71.11
2019-04-04T10:14:28.033Z,71.83
2019-04-04T10:15:27.961Z,71.01
2019-04-04T10:16:27.956Z,71.11
2019-04-04T10:17:27.930Z,72.55
2019-04-04T10:18:27.918Z,71.59
2019-04-04T10:19:27.920Z,71.62
2019-04-04T10:20:27.929Z,71.72
2019-04-04T10:21:27.896Z,71.59
2019-04-04T10:22:27.934Z,71.28
2019-04-04T10:23:27.878Z,70.26
2019-04-04T10:24:27.891Z,70.26
2019-04-04T10:25:27.857Z,69.95
2019-04-04T10:26:27.890Z,70.36
2019-04-04T10:27:27.816Z,70.26
2019-04-04T10:28:27.812Z,71.08
2019-04-04T10:29:27.791Z,70.97
2019-04-04T10:30:27.782Z,70.67
2019-04-04T10:31:27.786Z,69.40
2019-04-04T10:32:27.808Z,69.43
2019-04-04T10:33:27.775Z,69.33
2019-04-04T10:34:28.438Z,69.30
2019-04-04T10:35:27.764Z,69.61
2019-04-04T10:36:27.715Z,70.56
2019-04-04T10:37:27.727Z,70.73
2019-04-04T10:38:27.733Z,70.32
2019-04-04T10:39:28.963Z,70.73
2019-04-04T10:40:27.686Z,69.20
2019-04-04T10:41:27.664Z,70.40
2019-04-04T10:42:27.647Z,70.91
2019-04-04T10:43:27.641Z,69.89
2019-04-04T10:44:27.666Z,71.22
2019-04-04T10:45:27.645Z,70.70
2019-04-04T10:46:27.605Z,70.91
2019-04-04T10:47:27.617Z,70.50
2019-04-04T10:48:27.595Z,69.20
2019-04-04T10:49:27.585Z,71.15
2019-04-04T10:50:27.604Z,71.15
2019-04-04T10:51:27.554Z,71.15
2019-04-04T10:52:27.540Z,70.77
2019-04-04T10:53:27.526Z,70.90
2019-04-04T10:54:27.516Z,72.14
2019-04-04T10:55:27.509Z,72.44
2019-04-04T10:56:27.536Z,71.55
2019-04-04T10:57:27.478Z,71.69
2019-04-04T10:58:27.478Z,73.13
2019-04-04T10:59:27.457Z,72.20
2019-04-04T11:00:27.438Z,74.36
2019-04-04T11:01:27.440Z,74.15
2019-04-04T11:02:27.493Z,74.15
2019-04-04T11:03:27.498Z,74.05
2019-04-04T11:04:27.613Z,74.57
2019-04-04T11:05:27.394Z,75.18
2019-04-04T11:06:27.393Z,77.13
2019-04-04T11:07:28.145Z,76.42
2019-04-04T11:08:27.391Z,76.51
2019-04-04T11:09:27.349Z,77.03
2019-04-04T11:10:27.378Z,76.65
2019-04-04T11:11:27.316Z,76.86
2019-04-04T11:12:27.315Z,76.69
2019-04-04T11:13:33.336Z,77.31
2019-04-04T11:14:28.341Z,77.72
2019-04-04T11:15:27.280Z,77.31
2019-04-04T11:16:30.370Z,77.82
2019-04-04T11:17:27.268Z,78.75
2019-04-04T11:18:27.243Z,78.75
2019-04-04T11:19:31.394Z,79.16
2019-04-04T11:20:27.547Z,80.19
2019-04-04T11:21:27.238Z,79.67
2019-04-04T11:22:27.206Z,80.60
2019-04-04T11:23:27.190Z,81.01
2019-04-04T11:24:27.200Z,81.42
2019-04-04T11:25:27.172Z,80.70
2019-04-04T11:26:27.188Z,80.29
2019-04-04T11:27:27.167Z,81.42
2019-04-04T11:28:27.153Z,81.42
2019-04-04T11:29:27.128Z,81.76
2019-04-04T11:30:27.110Z,81.93
2019-04-04T11:31:27.094Z,81.62
2019-04-04T11:32:27.152Z,81.32
2019-04-04T11:33:27.078Z,82.04
2019-04-04T11:34:27.084Z,83.17
2019-04-04T11:35:27.055Z,83.41
2019-04-04T11:36:27.045Z,82.45
2019-04-04T11:37:27.049Z,82.39
2019-04-04T11:38:27.102Z,83.20
2019-04-04T11:39:27.012Z,82.79
2019-04-04T11:40:26.996Z,82.76
2019-04-04T11:41:26.985Z,83.06
2019-04-04T11:42:27.000Z,83.06
2019-04-04T11:43:26.991Z,83.06
2019-04-04T11:44:27.051Z,81.62
2019-04-04T11:45:26.944Z,81.62
2019-04-04T11:46:26.937Z,81.62
2019-04-04T11:47:26.919Z,81.21
2019-04-04T11:48:26.924Z,81.52
2019-04-04T11:49:26.898Z,80.08
2019-04-04T11:50:26.938Z,81.67
2019-04-04T11:51:26.880Z,81.46
2019-04-04T11:52:26.869Z,82.14
2019-04-04T11:53:26.855Z,81.42
2019-04-04T11:54:26.868Z,81.46
2019-04-04T11:55:26.837Z,81.11
2019-04-04T11:56:26.860Z,81.25
2019-04-04T11:57:26.808Z,81.62
2019-04-04T11:58:26.803Z,82.65
2019-04-04T11:59:26.786Z,82.04
2019-04-04T12:00:26.781Z,83.06
2019-04-04T12:01:26.783Z,82.62
2019-04-04T12:02:26.785Z,81.79
2019-04-04T12:03:26.748Z,81.48
2019-04-04T12:04:26.744Z,79.98
2019-04-04T12:05:26.721Z,79.67
2019-04-04T12:06:26.714Z,80.46
2019-04-04T12:07:26.699Z,79.63
2019-04-04T12:08:26.916Z,80.15
2019-04-04T12:09:26.682Z,81.18
2019-04-04T12:10:26.662Z,80.05
2019-04-04T12:11:26.785Z,80.25
2019-04-04T12:12:26.657Z,79.84
2019-04-04T12:13:26.687Z,79.94
2019-04-04T12:14:26.651Z,79.74
2019-04-04T12:15:26.613Z,79.63
2019-04-04T12:16:26.730Z,80.05
2019-04-04T12:17:26.593Z,79.53
2019-04-04T12:18:26.573Z,79.84
2019-04-04T12:19:26.569Z,80.15
2019-04-04T12:20:26.616Z,79.53
2019-04-04T12:21:26.570Z,79.63
2019-04-04T12:22:26.536Z,80.05
2019-04-04T12:23:26.524Z,80.56
2019-04-04T12:24:26.635Z,81.38
2019-04-04T12:25:26.514Z,79.94
2019-04-04T12:26:26.774Z,78.92
2019-04-04T12:27:26.482Z,79.91
2019-04-04T12:28:26.472Z,79.39
2019-04-04T12:29:26.464Z,79.80
2019-04-04T12:30:26.459Z,79.49
2019-04-04T12:31:26.433Z,79.60
2019-04-04T12:32:26.469Z,79.60
2019-04-04T12:33:26.438Z,79.91
2019-04-04T12:34:26.442Z,80.21
2019-04-04T12:35:26.394Z,79.08
2019-04-04T12:36:26.382Z,78.36
2019-04-04T12:37:26.557Z,78.74
2019-04-04T12:38:26.449Z,77.65
2019-04-04T12:39:26.372Z,77.13
2019-04-04T12:40:26.350Z,77.37
2019-04-04T12:41:28.237Z,78.57
2019-04-04T12:42:26.346Z,79.53
2019-04-04T12:43:26.353Z,80.05
2019-04-04T12:44:26.388Z,79.84
2019-04-04T12:45:26.519Z,78.61
2019-04-04T12:46:26.286Z,79.12
2019-04-04T12:47:26.270Z,80.35
2019-04-04T12:48:26.280Z,80.05
2019-04-04T12:49:26.257Z,80.15
2019-04-04T12:50:26.266Z,79.94
2019-04-04T12:51:26.222Z,79.74
2019-04-04T12:52:26.200Z,80.66